createdAt,value
2019-05-03T00:01:00.063Z,99001.36
2019-05-03T00:03:29.224Z,99003.68
2019-05-03T00:06:02.272Z,99008.09
2019-05-03T00:08:33.336Z,99006.01
2019-05-03T00:11:02.479Z,99004.78
2019-05-03T00:13:32.500Z,99004.86
2019-05-03T00:16:08.472Z,99000.96
2019-05-03T00:18:37.708Z,98994.73
2019-05-03T00:21:06.902Z,98997.53
2019-05-03T00:23:36.040Z,98998.52
2019-05-03T00:26:05.454Z,98996.58
2019-05-03T00:28:34.618Z,98999.45
2019-05-03T00:31:03.999Z,98995.55
2019-05-03T00:33:33.228Z,98995.48
2019-05-03T00:36:24.399Z,98992.53
2019-05-03T00:38:56.905Z,98997.92
2019-05-03T00:41:26.123Z,98995.01
2019-05-03T00:43:55.536Z,98996.94
2019-05-03T00:46:24.719Z,99000.28
2019-05-03T00:48:53.849Z,98995.92
2019-05-03T00:51:23.013Z,98995.84
2019-05-03T00:53:53.113Z,98996.47
2019-05-03T00:56:22.386Z,98998.91
2019-05-03T00:58:58.400Z,98998.71
2019-05-03T01:01:27.589Z,99001.86
2019-05-03T01:03:56.757Z,98998.75
2019-05-03T01:06:26.221Z,99004.50
2019-05-03T01:08:55.366Z,99002.80
2019-05-03T01:11:24.529Z,99001.63
2019-05-03T01:13:53.658Z,99005.91
2019-05-03T01:16:23.518Z,99012.64
2019-05-03T01:18:52.656Z,99002.84
2019-05-03T01:21:22.597Z,99005.91
2019-05-03T01:23:52.631Z,99008.31
2019-05-03T01:26:22.745Z,99005.75
2019-05-03T01:28:52.402Z,99004.61
2019-05-03T01:31:22.850Z,99006.33
2019-05-03T01:33:52.482Z,99000.22
2019-05-03T01:36:22.771Z,99001.52
2019-05-03T01:38:52.878Z,99002.94
2019-05-03T01:41:22.382Z,99002.11
2019-05-03T01:43:52.632Z,99000.88
2019-05-03T01:46:22.842Z,99007.23
2019-05-03T01:49:14.138Z,99010.53
2019-05-03T01:52:02.223Z,99008.32
2019-05-03T01:54:32.180Z,99004.30
2019-05-03T01:57:02.452Z,99012.52
2019-05-03T01:59:32.128Z,99010.56
2019-05-03T02:02:32.681Z,99008.44
2019-05-03T02:05:16.170Z,99010.24
2019-05-03T02:07:45.337Z,99010.09
2019-05-03T02:10:14.708Z,99018.07
2019-05-03T02:12:43.888Z,99007.02
2019-05-03T02:15:13.070Z,99016.69
2019-05-03T02:17:42.664Z,99023.06
2019-05-03T02:20:12.658Z,99018.19
2019-05-03T02:22:42.816Z,99025.87
2019-05-03T02:25:12.534Z,99026.55
2019-05-03T02:27:42.290Z,99029.88
2019-05-03T02:30:14.140Z,99029.77
2019-05-03T02:32:44.182Z,99024.03
2019-05-03T02:35:14.162Z,99025.69
2019-05-03T02:37:45.229Z,99025.22
2019-05-03T02:40:14.610Z,99027.25
2019-05-03T02:42:46.582Z,99029.77
2019-05-03T02:45:25.721Z,99029.09
2019-05-03T02:48:06.003Z,99028.17
2019-05-03T02:50:36.080Z,99036.08
2019-05-03T02:53:05.837Z,99030.67
2019-05-03T02:55:36.405Z,99032.45
2019-05-03T02:58:05.866Z,99034.42
2019-05-03T03:01:00.196Z,99039.16
2019-05-03T03:03:30.279Z,99031.91
2019-05-03T03:06:01.904Z,99035.07
2019-05-03T03:08:33.345Z,99031.17
2019-05-03T03:11:06.363Z,99002.30
2019-05-03T03:13:38.528Z,99036.08
2019-05-03T03:16:08.958Z,99031.45
2019-05-03T03:18:40.173Z,99036.53
2019-05-03T03:21:16.143Z,99035.97
2019-05-03T03:23:57.209Z,99041.28
2019-05-03T03:26:37.354Z,99042.22
2019-05-03T03:29:06.019Z,99049.43
2019-05-03T03:31:58.511Z,99049.91
2019-05-03T03:34:32.222Z,99050.02
2019-05-03T03:37:06.470Z,99055.01
2019-05-03T03:39:32.861Z,99052.30
2019-05-03T03:42:05.271Z,99055.92
2019-05-03T03:44:36.370Z,99055.57
2019-05-03T03:47:05.994Z,99052.68
2019-05-03T03:49:36.761Z,99048.77
2019-05-03T03:52:07.376Z,99052.97
2019-05-03T03:54:39.298Z,99051.84
2019-05-03T03:57:10.347Z,99052.67
2019-05-03T03:59:39.602Z,99055.01
2019-05-03T04:02:08.763Z,99054.52
2019-05-03T04:04:38.236Z,99052.91
2019-05-03T04:07:07.913Z,99053.22
2019-05-03T04:09:37.312Z,99057.39
2019-05-03T04:12:08.035Z,99059.16
2019-05-03T04:14:56.301Z,99069.44
2019-05-03T04:17:57.153Z,99067.98
2019-05-03T04:20:30.427Z,99070.97
2019-05-03T04:22:59.985Z,99071.59
2019-05-03T04:25:29.396Z,99072.42
2019-05-03T04:27:58.564Z,99072.19
2019-05-03T04:30:27.835Z,99072.44
2019-05-03T04:32:57.162Z,99073.73
2019-05-03T04:35:26.955Z,99079.66
2019-05-03T04:37:56.339Z,99089.42
2019-05-03T04:40:26.178Z,99094.59
2019-05-03T04:42:56.048Z,99094.02
2019-05-03T04:45:25.813Z,99101.93
2019-05-03T04:47:55.962Z,99100.20
2019-05-03T04:50:26.028Z,99107.84
2019-05-03T04:52:56.580Z,99106.65
2019-05-03T04:55:26.823Z,99112.56
2019-05-03T04:57:56.429Z,99113.25
2019-05-03T05:00:26.054Z,99115.77
2019-05-03T05:02:55.690Z,99121.61
2019-05-03T05:05:26.142Z,99125.76
2019-05-03T05:07:55.981Z,99130.73
2019-05-03T05:10:26.255Z,99129.41
2019-05-03T05:12:55.697Z,99137.69
2019-05-03T05:15:26.411Z,99138.41
2019-05-03T05:18:15.974Z,99144.03
2019-05-03T05:20:55.485Z,99150.42
2019-05-03T05:23:25.100Z,99146.63
2019-05-03T05:26:14.491Z,99147.36
2019-05-03T05:28:48.701Z,99150.05
2019-05-03T05:31:17.896Z,99151.21
2019-05-03T05:33:47.179Z,99155.67
2019-05-03T05:36:16.526Z,99151.88
2019-05-03T05:38:45.777Z,99153.55
2019-05-03T05:41:15.614Z,99164.14
2019-05-03T05:43:45.132Z,99168.05
2019-05-03T05:46:14.783Z,99168.03
2019-05-03T05:48:48.085Z,99177.45
2019-05-03T05:51:17.265Z,99175.26
2019-05-03T05:53:46.423Z,99174.97
2019-05-03T05:56:26.674Z,99175.77
2019-05-03T05:59:24.818Z,99182.95
2019-05-03T06:01:57.972Z,99180.67
2019-05-03T06:04:27.131Z,99180.16
2019-05-03T06:07:14.870Z,99186.91
2019-05-03T06:09:50.970Z,99194.18
2019-05-03T06:12:32.567Z,99197.55
2019-05-03T06:15:06.922Z,99196.94
2019-05-03T06:18:00.901Z,99195.20
2019-05-03T06:20:48.291Z,99198.59
2019-05-03T06:23:24.752Z,99206.19
2019-05-03T06:25:54.559Z,99208.27
2019-05-03T06:28:29.918Z,99201.59
2019-05-03T06:31:19.630Z,99209.67
2019-05-03T06:33:48.836Z,99216.86
2019-05-03T06:36:18.119Z,99210.23
2019-05-03T06:38:47.273Z,99209.36
2019-05-03T06:41:16.501Z,99214.06
2019-05-03T06:43:48.776Z,99210.31
2019-05-03T06:46:18.346Z,99210.64
2019-05-03T06:48:47.510Z,99214.09
2019-05-03T06:51:20.003Z,99215.81
2019-05-03T06:53:50.644Z,99211.70
2019-05-03T06:56:25.124Z,99216.95
2019-05-03T06:58:50.899Z,99217.90
2019-05-03T07:01:29.713Z,99206.36
2019-05-03T07:04:26.712Z,99217.17
2019-05-03T07:07:06.123Z,99220.80
2019-05-03T07:10:00.447Z,99226.11
2019-05-03T07:12:48.543Z,99222.13
2019-05-03T07:15:17.759Z,99230.23
2019-05-03T07:17:46.973Z,99237.47
2019-05-03T07:20:16.144Z,99237.70
2019-05-03T07:22:45.267Z,99234.86
2019-05-03T07:25:14.953Z,99240.45
2019-05-03T07:27:45.214Z,99246.05
2019-05-03T07:30:15.664Z,99241.81
2019-05-03T07:32:46.812Z,99241.62
2019-05-03T07:35:15.985Z,99227.59
2019-05-03T07:37:45.186Z,99232.49
2019-05-03T07:40:14.889Z,99236.59
2019-05-03T07:42:44.893Z,99237.36
2019-05-03T07:45:14.978Z,99237.36
2019-05-03T07:47:45.216Z,99240.82
2019-05-03T07:50:15.273Z,99234.53
2019-05-03T07:52:45.090Z,99239.45
2019-05-03T07:55:14.947Z,99232.33
2019-05-03T07:57:51.796Z,99232.42
2019-05-03T08:00:25.383Z,99228.76
2019-05-03T08:02:54.978Z,99234.10
2019-05-03T08:05:24.666Z,99247.34
2019-05-03T08:07:55.394Z,99238.72
2019-05-03T08:10:25.646Z,99241.09
2019-05-03T08:12:55.094Z,99243.96
2019-05-03T08:15:24.669Z,99247.45
2019-05-03T08:17:55.441Z,99251.00
2019-05-03T08:20:24.977Z,99251.61
2019-05-03T08:22:54.731Z,99244.66
2019-05-03T08:25:24.971Z,99233.14
2019-05-03T08:27:54.940Z,99239.91
2019-05-03T08:30:30.165Z,99237.33
2019-05-03T08:33:21.138Z,99243.75
2019-05-03T08:35:50.490Z,99252.03
2019-05-03T08:38:19.883Z,99249.59
2019-05-03T08:40:49.507Z,99239.50
2019-05-03T08:43:18.652Z,99241.52
2019-05-03T08:45:47.822Z,99238.83
2019-05-03T08:48:17.115Z,99235.72
2019-05-03T08:50:46.293Z,99238.93
2019-05-03T08:53:15.845Z,99244.27
2019-05-03T08:55:45.116Z,99239.75
2019-05-03T08:58:15.490Z,99246.47
2019-05-03T09:00:45.465Z,99250.89
2019-05-03T09:03:14.869Z,99253.00
2019-05-03T09:05:45.847Z,99258.02
2019-05-03T09:08:15.746Z,99254.63
2019-05-03T09:10:54.523Z,99248.63
2019-05-03T09:13:25.115Z,99248.52
2019-05-03T09:15:55.285Z,99240.98
2019-05-03T09:18:25.805Z,99246.52
2019-05-03T09:20:55.825Z,99245.54
2019-05-03T09:23:25.982Z,99248.47
2019-05-03T09:25:55.321Z,99255.16
2019-05-03T09:28:26.434Z,99251.54
2019-05-03T09:30:55.391Z,99252.81
2019-05-03T09:33:24.980Z,99249.66
2019-05-03T09:35:54.963Z,99255.28
2019-05-03T09:38:25.652Z,99250.28
2019-05-03T09:40:55.071Z,99257.91
2019-05-03T09:43:25.196Z,99260.09
2019-05-03T09:45:54.767Z,99251.66
2019-05-03T09:48:25.484Z,99255.00
2019-05-03T09:50:55.630Z,99259.85
2019-05-03T09:53:27.083Z,99247.53
2019-05-03T09:55:56.279Z,99251.00
2019-05-03T09:58:26.329Z,99247.52
2019-05-03T10:00:55.749Z,99242.42
2019-05-03T10:03:24.922Z,99247.80
2019-05-03T10:05:55.348Z,99246.77
2019-05-03T10:08:25.442Z,99247.51
2019-05-03T10:11:10.238Z,99236.50
2019-05-03T10:13:41.808Z,99228.05
2019-05-03T10:16:10.593Z,99232.31
2019-05-03T10:18:39.868Z,99238.27
2019-05-03T10:21:09.047Z,99231.14
2019-05-03T10:23:41.561Z,99236.58
2019-05-03T10:26:10.969Z,99239.11
2019-05-03T10:28:48.660Z,99232.92
2019-05-03T10:31:18.120Z,99228.63
2019-05-03T10:34:01.930Z,99233.70
2019-05-03T10:36:31.135Z,99229.42
2019-05-03T10:39:00.329Z,99222.95
2019-05-03T10:41:29.507Z,99224.66
2019-05-03T10:43:58.670Z,99232.39
2019-05-03T10:46:27.864Z,99227.50
2019-05-03T10:48:57.079Z,99222.04
2019-05-03T10:51:28.434Z,99223.96
2019-05-03T10:53:59.781Z,99222.86
2019-05-03T10:56:35.904Z,99214.00
2019-05-03T10:59:06.961Z,99206.27
2019-05-03T11:01:55.136Z,99211.03
2019-05-03T11:04:25.005Z,99204.61
2019-05-03T11:06:55.083Z,99201.81
2019-05-03T11:09:25.921Z,99204.00
2019-05-03T11:11:55.685Z,99210.17
2019-05-03T11:14:25.503Z,99197.76
2019-05-03T11:16:55.359Z,99201.91
2019-05-03T11:19:25.416Z,99200.63
2019-05-03T11:21:54.981Z,99192.50
2019-05-03T11:24:27.318Z,99179.66
2019-05-03T11:26:59.914Z,99181.70
2019-05-03T11:29:27.772Z,99189.80
2019-05-03T11:32:10.001Z,99188.73
2019-05-03T11:34:55.425Z,99187.78
2019-05-03T11:37:49.656Z,99187.53
2019-05-03T11:40:19.002Z,99182.42
2019-05-03T11:42:48.842Z,99188.52
2019-05-03T11:45:18.259Z,99172.84
2019-05-03T11:47:47.443Z,99183.61
2019-05-03T11:50:16.755Z,99180.69
2019-05-03T11:52:47.234Z,99182.67
2019-05-03T11:55:16.737Z,99185.09
2019-05-03T11:57:45.970Z,99175.30
2019-05-03T12:00:19.852Z,99179.52
2019-05-03T12:03:10.985Z,99183.94
2019-05-03T12:05:41.577Z,99176.06
2019-05-03T12:08:10.761Z,99170.20
2019-05-03T12:10:51.981Z,99167.86
2019-05-03T12:13:24.666Z,99176.95
2019-05-03T12:15:55.261Z,99173.73
2019-05-03T12:18:25.398Z,99176.12
2019-05-03T12:20:56.667Z,99176.94
2019-05-03T12:23:31.588Z,99177.86
2019-05-03T12:26:00.146Z,99169.48
2019-05-03T12:28:29.738Z,99162.28
2019-05-03T12:30:58.881Z,99164.67
2019-05-03T12:33:28.268Z,99174.67
2019-05-03T12:35:57.432Z,99164.19
2019-05-03T12:38:26.708Z,99162.32
2019-05-03T12:40:55.914Z,99160.01
2019-05-03T12:43:25.683Z,99169.83
2019-05-03T12:45:54.944Z,99171.49
2019-05-03T12:48:24.630Z,99157.03
2019-05-03T12:50:54.215Z,99160.20
2019-05-03T12:53:24.653Z,99164.09
2019-05-03T12:55:54.000Z,99161.65
2019-05-03T12:58:25.448Z,99170.87
2019-05-03T13:01:12.117Z,99170.87
2019-05-03T13:03:55.338Z,99154.22
2019-05-03T13:06:25.471Z,99158.53
2019-05-03T13:08:54.896Z,99158.53
2019-05-03T13:11:25.141Z,99160.53
2019-05-03T13:13:55.680Z,99159.84
2019-05-03T13:16:24.861Z,99154.09
2019-05-03T13:18:55.270Z,99145.73
2019-05-03T13:21:25.233Z,99142.63
2019-05-03T13:23:54.916Z,99143.73
2019-05-03T13:26:25.446Z,99138.77
2019-05-03T13:28:55.367Z,99137.84
2019-05-03T13:31:25.175Z,99130.59
2019-05-03T13:33:54.937Z,99132.27
2019-05-03T13:36:25.286Z,99139.48
2019-05-03T13:39:09.892Z,99134.92
2019-05-03T13:41:25.913Z,99132.03
2019-05-03T13:43:55.229Z,99131.83
2019-05-03T13:46:24.780Z,99138.25
2019-05-03T13:48:55.493Z,99144.14
2019-05-03T13:51:25.319Z,99143.23
2019-05-03T13:53:55.145Z,99134.69
2019-05-03T13:56:24.728Z,99136.61
2019-05-03T13:58:55.153Z,99136.60
2019-05-03T14:01:25.249Z,99132.53
2019-05-03T14:03:54.667Z,99134.20
2019-05-03T14:06:24.633Z,99129.84
2019-05-03T14:08:54.792Z,99137.14
2019-05-03T14:11:25.389Z,99132.00
2019-05-03T14:13:55.167Z,99131.81
2019-05-03T14:16:24.630Z,99135.81
2019-05-03T14:18:56.788Z,99145.38
2019-05-03T14:21:31.864Z,99157.23
2019-05-03T14:24:10.260Z,99148.52
2019-05-03T14:26:40.619Z,99145.76
2019-05-03T14:29:10.959Z,99139.66
2019-05-03T14:31:40.185Z,99138.86
2019-05-03T14:34:09.392Z,99136.72
2019-05-03T14:36:39.556Z,99137.56
2019-05-03T14:39:10.382Z,99143.22
2019-05-03T14:41:39.704Z,99133.58
2019-05-03T14:44:08.975Z,99141.16
2019-05-03T14:46:38.640Z,99141.18
2019-05-03T14:49:07.796Z,99138.48
2019-05-03T14:51:37.322Z,99140.04
2019-05-03T14:54:07.706Z,99135.71
2019-05-03T14:56:48.217Z,99141.59
2019-05-03T14:59:34.854Z,99134.81
2019-05-03T15:02:42.576Z,99134.87
2019-05-03T15:05:02.841Z,99137.84
2019-05-03T15:07:32.140Z,99127.34
2019-05-03T15:10:01.339Z,99128.84
2019-05-03T15:12:30.584Z,99133.22
2019-05-03T15:15:01.360Z,99131.95
2019-05-03T15:17:30.696Z,99133.91
2019-05-03T15:19:59.909Z,99129.45
2019-05-03T15:22:29.125Z,99122.02
2019-05-03T15:24:58.316Z,99123.41
2019-05-03T15:27:27.830Z,99121.44
2019-05-03T15:29:57.376Z,99125.55
2019-05-03T15:32:26.589Z,99124.43
2019-05-03T15:34:55.791Z,99122.80
2019-05-03T15:37:25.557Z,99112.59
2019-05-03T15:40:06.079Z,99107.29
2019-05-03T15:42:35.332Z,99108.87
2019-05-03T15:45:22.738Z,99105.52
2019-05-03T15:48:10.706Z,99096.61
2019-05-03T15:50:39.893Z,99110.06
2019-05-03T15:53:09.126Z,99099.23
2019-05-03T15:55:38.281Z,99091.52
2019-05-03T15:58:07.584Z,99087.24
2019-05-03T16:00:36.800Z,99085.20
2019-05-03T16:03:10.470Z,99090.98
2019-05-03T16:05:37.272Z,99094.61
2019-05-03T16:08:06.481Z,99094.09
2019-05-03T16:10:37.219Z,99094.16
2019-05-03T16:13:06.616Z,99094.31
2019-05-03T16:15:35.897Z,99086.33
2019-05-03T16:18:05.482Z,99086.33
2019-05-03T16:20:39.155Z,99094.19
2019-05-03T16:23:05.575Z,99089.46
2019-05-03T16:25:35.590Z,99087.64
2019-05-03T16:28:09.770Z,99088.38
2019-05-03T16:30:50.978Z,99088.38
2019-05-03T16:33:27.038Z,99080.41
2019-05-03T16:35:51.151Z,99087.20
2019-05-03T16:38:20.367Z,99097.34
2019-05-03T16:40:50.008Z,99098.27
2019-05-03T16:43:19.392Z,99098.69
2019-05-03T16:45:51.055Z,99095.98
2019-05-03T16:48:20.409Z,99094.11
2019-05-03T16:50:49.758Z,99089.85
2019-05-03T16:53:18.940Z,99082.02
2019-05-03T16:55:48.181Z,99083.39
2019-05-03T16:58:17.330Z,99074.84
2019-05-03T17:00:46.631Z,99078.16
2019-05-03T17:03:17.452Z,99078.50
2019-05-03T17:06:06.089Z,99084.92
2019-05-03T17:08:57.237Z,99085.70
2019-05-03T17:11:26.854Z,99085.98
2019-05-03T17:13:57.671Z,99085.27
2019-05-03T17:16:26.912Z,99088.47
2019-05-03T17:18:56.208Z,99086.45
2019-05-03T17:21:25.628Z,99084.14
2019-05-03T17:23:55.065Z,99084.75
2019-05-03T17:26:24.896Z,99089.42
2019-05-03T17:28:55.337Z,99082.01
2019-05-03T17:31:24.679Z,99089.23
2019-05-03T17:33:56.687Z,99086.94
2019-05-03T17:36:25.183Z,99080.09
2019-05-03T17:38:56.042Z,99072.71
2019-05-03T17:41:45.293Z,99084.27
2019-05-03T17:44:31.663Z,99082.52
2019-05-03T17:47:01.318Z,99079.16
2019-05-03T17:49:30.684Z,99078.11
2019-05-03T17:52:21.809Z,99076.03
2019-05-03T17:55:10.072Z,99072.52
2019-05-03T17:58:15.106Z,99076.85
2019-05-03T18:01:06.395Z,99076.91
2019-05-03T18:03:38.947Z,99073.15
2019-05-03T18:06:29.953Z,99075.80
2019-05-03T18:09:16.229Z,99080.54
2019-05-03T18:11:47.832Z,99082.69
2019-05-03T18:14:17.176Z,99082.00
2019-05-03T18:16:46.385Z,99090.95
2019-05-03T18:19:15.608Z,99091.98
2019-05-03T18:21:44.811Z,99089.48
2019-05-03T18:24:15.355Z,99099.41
2019-05-03T18:26:44.635Z,99097.49
2019-05-03T18:29:14.704Z,99096.40
2019-05-03T18:31:44.642Z,99096.42
2019-05-03T18:34:19.696Z,99103.69
2019-05-03T18:36:45.078Z,99103.74
2019-05-03T18:39:14.847Z,99100.38
2019-05-03T18:41:45.204Z,99109.89
2019-05-03T18:44:39.562Z,99102.08
2019-05-03T18:47:11.948Z,99107.09
2019-05-03T18:49:41.243Z,99110.95
2019-05-03T18:52:10.592Z,99112.80
2019-05-03T18:54:39.792Z,99114.41
2019-05-03T18:57:08.991Z,99112.59
2019-05-03T18:59:38.280Z,99112.36
2019-05-03T19:02:07.743Z,99114.08
2019-05-03T19:04:45.215Z,99116.58
2019-05-03T19:07:46.189Z,99115.98
2019-05-03T19:10:24.806Z,99115.44
2019-05-03T19:13:14.850Z,99122.78
2019-05-03T19:15:44.256Z,99123.41
2019-05-03T19:18:38.795Z,99125.59
2019-05-03T19:21:08.076Z,99129.66
2019-05-03T19:23:37.445Z,99122.90
2019-05-03T19:26:06.694Z,99122.13
2019-05-03T19:28:36.070Z,99128.06
2019-05-03T19:31:05.609Z,99130.45
2019-05-03T19:33:37.210Z,99130.92
2019-05-03T19:36:06.933Z,99132.47
2019-05-03T19:38:36.273Z,99130.58
2019-05-03T19:41:05.484Z,99136.02
2019-05-03T19:43:35.584Z,99132.95
2019-05-03T19:46:07.397Z,99134.95
2019-05-03T19:48:36.408Z,99139.20
2019-05-03T19:51:05.906Z,99134.38
2019-05-03T19:53:55.073Z,99124.24
2019-05-03T19:56:25.576Z,99143.92
2019-05-03T19:58:59.886Z,99144.97
2019-05-03T20:01:57.043Z,99141.56
2019-05-03T20:04:34.351Z,99144.40
2019-05-03T20:07:25.792Z,99138.50
2019-05-03T20:09:55.105Z,99138.38
2019-05-03T20:12:24.674Z,99140.96
2019-05-03T20:14:54.626Z,99133.30
2019-05-03T20:17:23.931Z,99136.84
2019-05-03T20:19:54.438Z,99132.84
2019-05-03T20:22:24.480Z,99133.64
2019-05-03T20:24:55.263Z,99136.81
2019-05-03T20:27:24.818Z,99131.30
2019-05-03T20:29:55.470Z,99128.24
2019-05-03T20:32:25.227Z,99127.55
2019-05-03T20:34:55.123Z,99126.22
2019-05-03T20:37:25.125Z,99127.41
2019-05-03T20:39:54.595Z,99126.58
2019-05-03T20:42:41.434Z,99120.68
2019-05-03T20:45:16.109Z,99120.09
2019-05-03T20:47:54.799Z,99123.26
2019-05-03T20:50:24.755Z,99120.44
2019-05-03T20:52:54.984Z,99124.00
2019-05-03T20:55:25.669Z,99117.06
2019-05-03T20:57:55.082Z,99121.53
2019-05-03T21:00:25.882Z,99119.65
2019-05-03T21:02:57.320Z,99120.83
2019-05-03T21:05:30.688Z,99122.70
2019-05-03T21:07:56.996Z,99114.80
2019-05-03T21:10:26.384Z,99112.55
2019-05-03T21:12:55.708Z,99117.72
2019-05-03T21:15:32.789Z,99115.03
2019-05-03T21:18:25.126Z,99113.38
2019-05-03T21:21:03.378Z,99113.36
2019-05-03T21:23:35.930Z,99117.37
2019-05-03T21:26:12.917Z,99114.55
2019-05-03T21:28:39.738Z,99108.08
2019-05-03T21:31:08.946Z,99113.83
2019-05-03T21:33:38.175Z,99106.19
2019-05-03T21:36:07.553Z,99106.29
2019-05-03T21:38:37.066Z,99106.19
2019-05-03T21:41:06.595Z,99105.14
2019-05-03T21:43:35.800Z,99097.70
2019-05-03T21:46:15.044Z,99102.08
2019-05-03T21:48:52.753Z,99101.25
2019-05-03T21:51:21.935Z,99101.00
2019-05-03T21:53:51.104Z,99101.73
2019-05-03T21:56:20.586Z,99106.42
2019-05-03T21:58:49.976Z,99100.80
2019-05-03T22:01:19.381Z,99101.73
2019-05-03T22:03:48.633Z,99099.13
2019-05-03T22:06:17.823Z,99105.02
2019-05-03T22:08:47.300Z,99109.75
2019-05-03T22:11:16.446Z,99108.21
2019-05-03T22:13:47.365Z,99111.27
2019-05-03T22:16:34.430Z,99101.59
2019-05-03T22:19:03.374Z,99107.72
2019-05-03T22:21:38.256Z,99107.74
2019-05-03T22:24:25.661Z,99105.25
2019-05-03T22:26:57.887Z,99106.77
2019-05-03T22:29:27.060Z,99096.08
2019-05-03T22:31:56.334Z,99094.55
2019-05-03T22:34:25.945Z,99088.19
2019-05-03T22:36:55.493Z,99090.53
2019-05-03T22:39:25.164Z,99083.11
2019-05-03T22:41:54.620Z,99083.70
2019-05-03T22:44:25.299Z,99075.67
2019-05-03T22:46:55.153Z,99073.80
2019-05-03T22:49:26.041Z,99076.85
2019-05-03T22:51:55.499Z,99068.05
2019-05-03T22:54:24.998Z,99069.67
2019-05-03T22:56:55.446Z,99070.63
2019-05-03T22:59:25.941Z,99063.33
2019-05-03T23:01:55.602Z,99054.59
2019-05-03T23:04:25.412Z,99055.55
2019-05-03T23:06:55.621Z,99048.95
2019-05-03T23:09:25.130Z,99050.84
2019-05-03T23:11:55.226Z,99049.17
2019-05-03T23:14:25.472Z,99045.17
2019-05-03T23:16:55.098Z,99038.59
2019-05-03T23:19:24.437Z,99033.89
2019-05-03T23:22:21.930Z,99030.47
2019-05-03T23:24:51.083Z,99024.81
2019-05-03T23:27:20.298Z,99026.11
2019-05-03T23:29:49.431Z,99027.64
2019-05-03T23:32:19.688Z,99023.62
2019-05-03T23:34:48.883Z,99013.14
2019-05-03T23:37:18.050Z,99010.56
2019-05-03T23:39:47.197Z,99009.63
2019-05-03T23:42:16.653Z,99004.33
2019-05-03T23:44:45.829Z,99002.79
2019-05-03T23:47:25.748Z,98999.39
2019-05-03T23:49:55.467Z,98995.13
2019-05-03T23:52:35.545Z,98995.14
2019-05-03T23:55:14.694Z,98991.95
2019-05-03T23:57:44.653Z,98977.72
